Terminal Aerodrome Forecast
Issued by NWS Wilmington, OH

Current Version | Previous Version | Text Only | Print | Product List | Glossary Off
Versions: 1 2 3 4 5 6 7 8 9 10 11 12 13 14 15 16 17 18 19 20 21 22 23 24 25 26

000
FTUS41 KILN 272300
TAFDAY
TAF
KDAY 272338Z 2800/2824 23014KT P6SM VCSH SCT050
     FM280200 24008KT P6SM -SHRA SCT050
     FM280400 VRB03KT P6SM SCT015
     FM281400 08007KT P6SM FEW025
     FM281800 09008KT P6SM SCT050=

USA.gov is the U.S. government's official web portal to all federal, state and local government web resources and services.